createdAt,value
2019-02-25T00:00:52.939Z,0
2019-02-25T00:01:52.924Z,0
2019-02-25T00:02:52.891Z,0
2019-02-25T00:03:52.625Z,0
2019-02-25T00:04:52.863Z,0
2019-02-25T00:05:52.834Z,0
2019-02-25T00:06:52.569Z,0
2019-02-25T00:07:52.802Z,0
2019-02-25T00:08:52.774Z,0
2019-02-25T00:09:52.770Z,0
2019-02-25T00:10:52.740Z,0
2019-02-25T00:11:52.713Z,0
2019-02-25T00:12:52.458Z,0
2019-02-25T00:13:52.686Z,0
2019-02-25T00:14:52.679Z,0
2019-02-25T00:15:52.647Z,0
2019-02-25T00:16:52.384Z,0
2019-02-25T00:17:52.616Z,0
2019-02-25T00:18:52.635Z,0
2019-02-25T00:19:52.079Z,0
2019-02-25T00:20:52.307Z,0
2019-02-25T00:21:52.527Z,0
2019-02-25T00:22:52.518Z,0
2019-02-25T00:23:52.510Z,0
2019-02-25T00:24:52.475Z,0
2019-02-25T00:25:52.208Z,0
2019-02-25T00:26:52.018Z,0
2019-02-25T00:27:52.517Z,0
2019-02-25T00:28:52.391Z,0
2019-02-25T00:29:52.383Z,0
2019-02-25T00:30:52.363Z,0
2019-02-25T00:31:52.095Z,0
2019-02-25T00:32:52.322Z,0
2019-02-25T00:33:52.299Z,0
2019-02-25T00:34:52.284Z,0
2019-02-25T00:35:52.262Z,0
2019-02-25T00:36:51.993Z,0
2019-02-25T00:37:52.229Z,0
2019-02-25T00:38:52.203Z,0
2019-02-25T00:39:52.188Z,0
2019-02-25T00:40:52.180Z,0
2019-02-25T00:41:52.153Z,0
2019-02-25T00:42:51.878Z,0
2019-02-25T00:43:52.167Z,0
2019-02-25T00:44:51.593Z,0
2019-02-25T00:45:52.080Z,0
2019-02-25T00:46:52.069Z,0
2019-02-25T00:47:52.027Z,0
2019-02-25T00:48:52.077Z,0
2019-02-25T00:49:52.004Z,0
2019-02-25T00:50:51.972Z,0
2019-02-25T00:51:51.957Z,0
2019-02-25T00:52:51.942Z,0
2019-02-25T00:53:51.942Z,0
2019-02-25T00:54:51.934Z,0
2019-02-25T00:55:51.879Z,0
2019-02-25T00:56:51.912Z,0
2019-02-25T00:57:51.606Z,0
2019-02-25T00:58:51.821Z,0
2019-02-25T00:59:51.572Z,0
2019-02-25T01:00:51.791Z,0
2019-02-25T01:01:51.773Z,0
2019-02-25T01:02:51.753Z,0
2019-02-25T01:03:51.727Z,0
2019-02-25T01:04:51.709Z,0
2019-02-25T01:05:51.438Z,0
2019-02-25T01:06:51.687Z,0
2019-02-25T01:07:51.657Z,0
2019-02-25T01:08:51.636Z,0
2019-02-25T01:09:51.117Z,0
2019-02-25T01:10:51.597Z,0
2019-02-25T01:11:51.579Z,0
2019-02-25T01:12:51.317Z,0
2019-02-25T01:13:51.686Z,0
2019-02-25T01:14:51.519Z,0
2019-02-25T01:15:51.496Z,0
2019-02-25T01:16:51.476Z,0
2019-02-25T01:17:51.461Z,0
2019-02-25T01:18:51.441Z,0
2019-02-25T01:19:51.180Z,0
2019-02-25T01:20:51.407Z,0
2019-02-25T01:21:51.144Z,0
2019-02-25T01:22:51.366Z,0
2019-02-25T01:23:53.621Z,0
2019-02-25T01:24:51.328Z,0
2019-02-25T01:25:51.316Z,0
2019-02-25T01:26:50.823Z,0
2019-02-25T01:27:51.020Z,0
2019-02-25T01:28:51.252Z,0
2019-02-25T01:29:50.980Z,0
2019-02-25T01:30:50.966Z,0
2019-02-25T01:31:51.198Z,0
2019-02-25T01:32:51.174Z,0
2019-02-25T01:33:50.906Z,0
2019-02-25T01:34:51.135Z,0
2019-02-25T01:35:51.123Z,0
2019-02-25T01:36:50.852Z,0
2019-02-25T01:37:50.833Z,0
2019-02-25T01:38:51.068Z,0
2019-02-25T01:39:50.799Z,0
2019-02-25T01:40:51.023Z,0
2019-02-25T01:41:50.755Z,0
2019-02-25T01:42:50.808Z,0
2019-02-25T01:43:50.963Z,0
2019-02-25T01:44:50.958Z,0
2019-02-25T01:45:50.935Z,0
2019-02-25T01:46:50.910Z,0
2019-02-25T01:47:50.887Z,0
2019-02-25T01:48:50.869Z,0
2019-02-25T01:49:50.855Z,0
2019-02-25T01:50:50.828Z,0
2019-02-25T01:51:50.316Z,0
2019-02-25T01:52:50.539Z,0
2019-02-25T01:53:50.771Z,0
2019-02-25T01:54:50.761Z,0
2019-02-25T01:55:50.729Z,0
2019-02-25T01:56:50.463Z,0
2019-02-25T01:57:50.695Z,0
2019-02-25T01:58:50.680Z,0
2019-02-25T01:59:50.408Z,0
2019-02-25T02:00:50.649Z,0
2019-02-25T02:01:50.362Z,0
2019-02-25T02:02:50.603Z,0
2019-02-25T02:03:50.337Z,0
2019-02-25T02:04:50.561Z,0
2019-02-25T02:05:50.552Z,0
2019-02-25T02:06:50.525Z,0
2019-02-25T02:07:50.518Z,0
2019-02-25T02:08:50.486Z,0
2019-02-25T02:09:50.618Z,0
2019-02-25T02:10:50.453Z,0
2019-02-25T02:11:50.424Z,0
2019-02-25T02:12:50.430Z,0
2019-02-25T02:13:50.136Z,0
2019-02-25T02:14:50.384Z,0
2019-02-25T02:15:50.355Z,0
2019-02-25T02:16:50.093Z,0
2019-02-25T02:17:50.064Z,0
2019-02-25T02:18:50.290Z,0
2019-02-25T02:19:49.781Z,0
2019-02-25T02:20:50.255Z,0
2019-02-25T02:21:50.245Z,0
2019-02-25T02:22:50.223Z,0
2019-02-25T02:23:50.208Z,0
2019-02-25T02:24:49.932Z,0
2019-02-25T02:25:50.156Z,0
2019-02-25T02:26:50.141Z,0
2019-02-25T02:27:50.167Z,0
2019-02-25T02:28:50.109Z,0
2019-02-25T02:29:49.836Z,0
2019-02-25T02:30:49.832Z,0
2019-02-25T02:31:49.815Z,0
2019-02-25T02:32:50.036Z,0
2019-02-25T02:33:50.074Z,0
2019-02-25T02:34:50.005Z,0
2019-02-25T02:35:49.975Z,0
2019-02-25T02:36:49.707Z,0
2019-02-25T02:37:49.937Z,0
2019-02-25T02:38:49.942Z,0
2019-02-25T02:39:49.913Z,0
2019-02-25T02:40:49.881Z,0
2019-02-25T02:41:49.855Z,0
2019-02-25T02:42:49.850Z,0
2019-02-25T02:43:49.815Z,0
2019-02-25T02:44:49.552Z,0
2019-02-25T02:45:49.796Z,0
2019-02-25T02:46:49.524Z,0
2019-02-25T02:47:49.782Z,0
2019-02-25T02:48:49.476Z,0
2019-02-25T02:49:49.770Z,0
2019-02-25T02:50:49.447Z,0
2019-02-25T02:51:49.676Z,0
2019-02-25T02:52:49.409Z,0
2019-02-25T02:53:49.632Z,0
2019-02-25T02:54:49.629Z,0
2019-02-25T02:55:49.721Z,0
2019-02-25T02:56:49.573Z,0
2019-02-25T02:57:49.575Z,0
2019-02-25T02:58:49.537Z,0
2019-02-25T02:59:49.042Z,0
2019-02-25T03:00:49.256Z,0
2019-02-25T03:01:49.499Z,0
2019-02-25T03:02:49.461Z,0
2019-02-25T03:03:49.197Z,0
2019-02-25T03:04:49.433Z,0
2019-02-25T03:05:49.417Z,0
2019-02-25T03:06:49.139Z,0
2019-02-25T03:07:49.410Z,0
2019-02-25T03:08:49.093Z,0
2019-02-25T03:09:49.352Z,0
2019-02-25T03:10:49.303Z,0
2019-02-25T03:11:49.286Z,0
2019-02-25T03:12:49.279Z,0
2019-02-25T03:13:49.253Z,0
2019-02-25T03:14:49.251Z,0
2019-02-25T03:15:49.019Z,0
2019-02-25T03:16:49.206Z,0
2019-02-25T03:17:48.925Z,0
2019-02-25T03:18:49.159Z,0
2019-02-25T03:19:49.145Z,0
2019-02-25T03:20:49.121Z,0
2019-02-25T03:21:49.103Z,0
2019-02-25T03:22:48.822Z,0
2019-02-25T03:23:48.818Z,0
2019-02-25T03:24:48.794Z,0
2019-02-25T03:25:49.016Z,0
2019-02-25T03:26:49.011Z,0
2019-02-25T03:27:48.982Z,0
2019-02-25T03:28:48.732Z,0
2019-02-25T03:29:48.448Z,0
2019-02-25T03:30:48.966Z,0
2019-02-25T03:31:48.703Z,0
2019-02-25T03:32:49.026Z,0
2019-02-25T03:33:48.903Z,0
2019-02-25T03:34:48.860Z,0
2019-02-25T03:35:48.838Z,0
2019-02-25T03:36:48.820Z,0
2019-02-25T03:37:48.811Z,0
2019-02-25T03:38:48.803Z,0
2019-02-25T03:39:48.805Z,0
2019-02-25T03:40:48.494Z,0
2019-02-25T03:41:48.467Z,0
2019-02-25T03:42:48.698Z,0
2019-02-25T03:43:48.698Z,0
2019-02-25T03:44:48.666Z,0
2019-02-25T03:45:48.693Z,0
2019-02-25T03:46:48.627Z,0
2019-02-25T03:47:48.368Z,0
2019-02-25T03:48:48.582Z,0
2019-02-25T03:49:48.563Z,0
2019-02-25T03:50:48.697Z,0
2019-02-25T03:51:48.531Z,0
2019-02-25T03:52:48.327Z,0
2019-02-25T03:53:48.250Z,0
2019-02-25T03:54:48.228Z,0
2019-02-25T03:55:48.458Z,0
2019-02-25T03:56:48.429Z,0
2019-02-25T03:57:48.187Z,0
2019-02-25T03:58:48.419Z,0
2019-02-25T03:59:48.373Z,0
2019-02-25T04:00:48.364Z,0
2019-02-25T04:01:48.372Z,0
2019-02-25T04:02:48.337Z,0
2019-02-25T04:03:48.293Z,0
2019-02-25T04:04:48.362Z,0
2019-02-25T04:05:48.268Z,0
2019-02-25T04:06:48.255Z,0
2019-02-25T04:07:48.227Z,0
2019-02-25T04:08:48.210Z,0
2019-02-25T04:09:47.952Z,0
2019-02-25T04:10:48.178Z,0
2019-02-25T04:11:47.901Z,0
2019-02-25T04:12:48.152Z,0
2019-02-25T04:13:48.107Z,0
2019-02-25T04:14:48.101Z,0
2019-02-25T04:15:48.067Z,0
2019-02-25T04:16:47.818Z,0
2019-02-25T04:17:48.049Z,0
2019-02-25T04:18:48.018Z,0
2019-02-25T04:19:48.002Z,0
2019-02-25T04:20:47.969Z,0
2019-02-25T04:21:47.961Z,0
2019-02-25T04:22:47.973Z,0
2019-02-25T04:23:47.919Z,0
2019-02-25T04:24:47.643Z,0
2019-02-25T04:25:47.880Z,0
2019-02-25T04:26:47.866Z,0
2019-02-25T04:27:47.866Z,0
2019-02-25T04:28:47.578Z,0
2019-02-25T04:29:47.815Z,0
2019-02-25T04:30:47.595Z,0
2019-02-25T04:31:47.787Z,0
2019-02-25T04:32:47.772Z,0
2019-02-25T04:33:47.730Z,0
2019-02-25T04:34:47.717Z,0
2019-02-25T04:35:47.469Z,0
2019-02-25T04:36:47.679Z,0
2019-02-25T04:37:47.472Z,0
2019-02-25T04:38:47.386Z,0
2019-02-25T04:39:47.413Z,0
2019-02-25T04:40:47.342Z,0
2019-02-25T04:41:47.579Z,0
2019-02-25T04:42:47.382Z,0
2019-02-25T04:43:47.527Z,0
2019-02-25T04:44:47.034Z,0
2019-02-25T04:45:47.560Z,0
2019-02-25T04:46:47.543Z,0
2019-02-25T04:47:47.484Z,0
2019-02-25T04:48:47.443Z,0
2019-02-25T04:49:47.433Z,0
2019-02-25T04:50:47.409Z,0
2019-02-25T04:51:47.402Z,0
2019-02-25T04:52:47.377Z,0
2019-02-25T04:53:47.357Z,0
2019-02-25T04:54:47.331Z,0
2019-02-25T04:55:47.305Z,0
2019-02-25T04:56:47.289Z,0
2019-02-25T04:57:47.056Z,0
2019-02-25T04:58:47.244Z,0
2019-02-25T04:59:47.231Z,0
2019-02-25T05:00:46.970Z,0
2019-02-25T05:01:46.942Z,0
2019-02-25T05:02:46.932Z,0
2019-02-25T05:03:47.157Z,0
2019-02-25T05:04:47.129Z,0
2019-02-25T05:05:47.214Z,0
2019-02-25T05:06:47.088Z,0
2019-02-25T05:07:47.090Z,0
2019-02-25T05:08:47.064Z,0
2019-02-25T05:09:46.836Z,0
2019-02-25T05:10:46.769Z,0
2019-02-25T05:11:46.751Z,0
2019-02-25T05:12:46.745Z,0
2019-02-25T05:13:46.469Z,0
2019-02-25T05:14:46.938Z,0
2019-02-25T05:15:46.932Z,0
2019-02-25T05:16:47.267Z,0
2019-02-25T05:17:46.890Z,0
2019-02-25T05:18:46.121Z,0
2019-02-25T05:19:46.890Z,0
2019-02-25T05:20:46.827Z,0
2019-02-25T05:21:46.813Z,0
2019-02-25T05:22:47.243Z,0
2019-02-25T05:23:46.782Z,0
2019-02-25T05:24:46.759Z,0
2019-02-25T05:25:46.723Z,0
2019-02-25T05:26:46.729Z,0
2019-02-25T05:27:46.708Z,0
2019-02-25T05:28:46.689Z,0
2019-02-25T05:29:46.673Z,0
2019-02-25T05:30:46.495Z,0
2019-02-25T05:31:46.373Z,0
2019-02-25T05:32:46.626Z,0
2019-02-25T05:33:46.583Z,0
2019-02-25T05:34:46.556Z,0
2019-02-25T05:35:46.555Z,0
2019-02-25T05:36:46.524Z,0
2019-02-25T05:37:46.011Z,0
2019-02-25T05:38:46.075Z,0
2019-02-25T05:39:46.464Z,0
2019-02-25T05:40:46.473Z,0
2019-02-25T05:41:46.441Z,0
2019-02-25T05:42:46.426Z,0
2019-02-25T05:43:46.391Z,0
2019-02-25T05:44:46.139Z,0
2019-02-25T05:45:46.355Z,0
2019-02-25T05:46:46.483Z,0
2019-02-25T05:47:46.326Z,0
2019-02-25T05:48:46.058Z,0
2019-02-25T05:49:46.277Z,0
2019-02-25T05:50:46.003Z,0
2019-02-25T05:51:45.987Z,0
2019-02-25T05:52:46.208Z,0
2019-02-25T05:53:46.204Z,0
2019-02-25T05:54:46.210Z,0
2019-02-25T05:55:46.179Z,0
2019-02-25T05:56:48.490Z,0
2019-02-25T05:57:46.137Z,0
2019-02-25T05:58:45.867Z,0
2019-02-25T05:59:45.838Z,0
2019-02-25T06:00:46.059Z,5
2019-02-25T06:01:46.111Z,5
2019-02-25T06:02:46.024Z,5
2019-02-25T06:03:46.000Z,5
2019-02-25T06:04:46.002Z,5
2019-02-25T06:05:45.971Z,5
2019-02-25T06:06:45.705Z,5
2019-02-25T06:07:45.685Z,5
2019-02-25T06:08:45.917Z,5
2019-02-25T06:09:45.891Z,10
2019-02-25T06:10:45.869Z,10
2019-02-25T06:11:45.857Z,10
2019-02-25T06:12:45.843Z,10
2019-02-25T06:13:45.559Z,10
2019-02-25T06:14:45.555Z,15
2019-02-25T06:15:45.776Z,15
2019-02-25T06:16:45.755Z,15
2019-02-25T06:17:45.750Z,15
2019-02-25T06:18:45.720Z,15
2019-02-25T06:19:45.705Z,20
2019-02-25T06:20:45.683Z,20
2019-02-25T06:21:45.415Z,20
2019-02-25T06:22:45.447Z,20
2019-02-25T06:23:45.617Z,20
2019-02-25T06:24:45.110Z,25
2019-02-25T06:25:45.588Z,25
2019-02-25T06:26:45.720Z,25
2019-02-25T06:27:45.056Z,25
2019-02-25T06:28:45.290Z,25
2019-02-25T06:29:45.502Z,30
2019-02-25T06:30:45.488Z,30
2019-02-25T06:31:45.230Z,30
2019-02-25T06:32:45.549Z,30
2019-02-25T06:33:47.468Z,35
2019-02-25T06:34:45.410Z,35
2019-02-25T06:35:45.152Z,35
2019-02-25T06:36:45.385Z,40
2019-02-25T06:37:45.161Z,40
2019-02-25T06:38:45.349Z,40
2019-02-25T06:39:45.345Z,45
2019-02-25T06:40:45.300Z,45
2019-02-25T06:41:45.029Z,45
2019-02-25T06:42:45.005Z,45
2019-02-25T06:43:45.245Z,45
2019-02-25T06:44:45.224Z,50
2019-02-25T06:45:44.461Z,50
2019-02-25T06:46:45.190Z,50
2019-02-25T06:47:45.209Z,50
2019-02-25T06:48:45.296Z,50
2019-02-25T06:49:45.123Z,55
2019-02-25T06:50:44.863Z,55
2019-02-25T06:51:45.101Z,55
2019-02-25T06:52:44.584Z,55
2019-02-25T06:53:45.053Z,55
2019-02-25T06:54:44.790Z,55
2019-02-25T06:55:45.017Z,55
2019-02-25T06:56:44.993Z,60
2019-02-25T06:57:44.976Z,60
2019-02-25T06:58:44.968Z,60
2019-02-25T06:59:44.949Z,60
2019-02-25T07:00:44.929Z,60
2019-02-25T07:01:44.899Z,60
2019-02-25T07:02:44.885Z,65
2019-02-25T07:03:46.115Z,65
2019-02-25T07:04:44.601Z,65
2019-02-25T07:05:44.839Z,65
2019-02-25T07:06:44.810Z,65
2019-02-25T07:07:44.794Z,70
2019-02-25T07:08:44.774Z,70
2019-02-25T07:09:46.094Z,70
2019-02-25T07:10:44.754Z,70
2019-02-25T07:11:44.718Z,70
2019-02-25T07:12:44.702Z,70
2019-02-25T07:13:44.692Z,70
2019-02-25T07:14:44.696Z,70
2019-02-25T07:15:44.645Z,70
2019-02-25T07:16:44.633Z,70
2019-02-25T07:17:44.629Z,70
2019-02-25T07:18:44.594Z,75
2019-02-25T07:19:44.583Z,75
2019-02-25T07:20:45.225Z,75
2019-02-25T07:21:44.591Z,75
2019-02-25T07:22:44.516Z,75
2019-02-25T07:23:44.662Z,75
2019-02-25T07:24:52.575Z,75
2019-02-25T07:25:44.215Z,75
2019-02-25T07:26:44.192Z,75
2019-02-25T07:27:44.429Z,75
2019-02-25T07:28:46.200Z,75
2019-02-25T07:29:44.389Z,75
2019-02-25T07:30:44.165Z,80
2019-02-25T07:31:44.366Z,80
2019-02-25T07:32:44.342Z,80
2019-02-25T07:33:44.078Z,80
2019-02-25T07:34:44.088Z,80
2019-02-25T07:35:44.288Z,85
2019-02-25T07:36:44.278Z,85
2019-02-25T07:37:44.256Z,85
2019-02-25T07:38:49.263Z,85
2019-02-25T07:39:43.965Z,85
2019-02-25T07:40:44.201Z,90
2019-02-25T07:41:45.161Z,90
2019-02-25T07:42:43.915Z,90
2019-02-25T07:43:44.150Z,90
2019-02-25T07:44:44.122Z,90
2019-02-25T07:45:44.113Z,90
2019-02-25T07:46:43.846Z,95
2019-02-25T07:47:44.075Z,95
2019-02-25T07:48:44.605Z,95
2019-02-25T07:49:44.036Z,95
2019-02-25T07:50:51.864Z,95
2019-02-25T07:51:44.005Z,95
2019-02-25T07:52:43.988Z,100
2019-02-25T07:53:43.715Z,100
2019-02-25T07:54:43.955Z,100
2019-02-25T07:55:43.689Z,100
2019-02-25T07:56:43.919Z,100
2019-02-25T07:57:43.662Z,100
2019-02-25T07:58:43.922Z,100
2019-02-25T07:59:43.871Z,105
2019-02-25T08:00:43.355Z,105
2019-02-25T08:01:43.579Z,105
2019-02-25T08:02:43.820Z,105
2019-02-25T08:03:43.310Z,105
2019-02-25T08:04:43.780Z,105
2019-02-25T08:05:43.763Z,105
2019-02-25T08:06:43.742Z,100
2019-02-25T08:07:43.737Z,100
2019-02-25T08:08:43.714Z,105
2019-02-25T08:09:43.446Z,105
2019-02-25T08:10:43.433Z,105
2019-02-25T08:11:43.666Z,105
2019-02-25T08:12:43.401Z,105
2019-02-25T08:13:43.631Z,110
2019-02-25T08:14:43.623Z,110
2019-02-25T08:15:43.604Z,110
2019-02-25T08:16:43.579Z,110
2019-02-25T08:17:43.311Z,110
2019-02-25T08:18:43.550Z,110
2019-02-25T08:19:43.277Z,110
2019-02-25T08:20:44.522Z,110
2019-02-25T08:21:43.495Z,110
2019-02-25T08:22:43.480Z,105
2019-02-25T08:23:43.463Z,105
2019-02-25T08:24:43.454Z,105
2019-02-25T08:25:43.440Z,105
2019-02-25T08:26:43.434Z,105
2019-02-25T08:27:43.402Z,105
2019-02-25T08:28:43.142Z,105
2019-02-25T08:29:42.929Z,105
2019-02-25T08:30:43.351Z,105
2019-02-25T08:31:43.336Z,105
2019-02-25T08:32:42.826Z,105
2019-02-25T08:33:43.310Z,105
2019-02-25T08:34:43.094Z,105
2019-02-25T08:35:43.033Z,105
2019-02-25T08:36:44.729Z,105
2019-02-25T08:37:43.238Z,105
2019-02-25T08:38:42.752Z,105
2019-02-25T08:39:43.216Z,105
2019-02-25T08:40:43.205Z,105
2019-02-25T08:41:43.178Z,105
2019-02-25T08:42:42.918Z,105
2019-02-25T08:43:43.146Z,105
2019-02-25T08:44:43.129Z,105
2019-02-25T08:45:42.869Z,110
2019-02-25T08:46:42.856Z,110
2019-02-25T08:47:43.113Z,110
2019-02-25T08:48:43.119Z,110
2019-02-25T08:49:43.057Z,110
2019-02-25T08:50:43.046Z,110
2019-02-25T08:51:43.033Z,115
2019-02-25T08:52:43.024Z,115
2019-02-25T08:53:43.015Z,115
2019-02-25T08:54:42.738Z,115
2019-02-25T08:55:42.728Z,115
2019-02-25T08:56:42.969Z,120
2019-02-25T08:57:42.940Z,110
2019-02-25T08:58:45.156Z,115
2019-02-25T08:59:42.910Z,115
2019-02-25T09:00:42.902Z,115
2019-02-25T09:01:42.888Z,115
2019-02-25T09:02:42.865Z,115
2019-02-25T09:03:42.601Z,115
2019-02-25T09:04:42.837Z,115
2019-02-25T09:05:42.577Z,115
2019-02-25T09:06:42.814Z,115
2019-02-25T09:07:44.997Z,115
2019-02-25T09:08:42.791Z,115
2019-02-25T09:09:42.785Z,115
2019-02-25T09:10:42.506Z,115
2019-02-25T09:11:42.512Z,110
2019-02-25T09:12:42.727Z,110
2019-02-25T09:13:42.708Z,110
2019-02-25T09:14:42.745Z,110
2019-02-25T09:15:42.190Z,110
2019-02-25T09:16:42.669Z,110
2019-02-25T09:17:42.658Z,115
2019-02-25T09:18:42.393Z,110
2019-02-25T09:19:42.631Z,110
2019-02-25T09:20:42.407Z,110
2019-02-25T09:21:42.605Z,110
2019-02-25T09:22:42.610Z,110
2019-02-25T09:23:42.572Z,110
2019-02-25T09:24:43.332Z,110
2019-02-25T09:25:42.552Z,110
2019-02-25T09:26:42.526Z,110
2019-02-25T09:27:42.515Z,110
2019-02-25T09:28:42.532Z,110
2019-02-25T09:29:42.233Z,110
2019-02-25T09:30:42.475Z,110
2019-02-25T09:31:42.506Z,110
2019-02-25T09:32:42.198Z,110
2019-02-25T09:33:42.448Z,110
2019-02-25T09:34:42.429Z,110
2019-02-25T09:35:42.413Z,105
2019-02-25T09:36:42.393Z,110
2019-02-25T09:37:44.191Z,110
2019-02-25T09:38:42.376Z,110
2019-02-25T09:39:42.111Z,110
2019-02-25T09:40:42.090Z,110
2019-02-25T09:41:42.335Z,110
2019-02-25T09:42:42.320Z,110
2019-02-25T09:43:42.308Z,110
2019-02-25T09:44:42.839Z,110
2019-02-25T09:45:42.278Z,110
2019-02-25T09:46:42.269Z,110
2019-02-25T09:47:42.008Z,110
2019-02-25T09:48:42.235Z,110
2019-02-25T09:49:41.981Z,115
2019-02-25T09:50:42.220Z,115
2019-02-25T09:51:42.197Z,115
2019-02-25T09:52:42.190Z,110
2019-02-25T09:53:42.175Z,115
2019-02-25T09:54:42.182Z,115
2019-02-25T09:55:42.148Z,115
2019-02-25T09:56:42.228Z,115
2019-02-25T09:57:42.133Z,115
2019-02-25T09:58:42.124Z,115
2019-02-25T09:59:42.101Z,115
2019-02-25T10:00:41.847Z,110
2019-02-25T10:01:41.827Z,110
2019-02-25T10:02:42.067Z,110
2019-02-25T10:03:42.065Z,110
2019-02-25T10:04:42.045Z,110
2019-02-25T10:05:42.070Z,110
2019-02-25T10:06:41.786Z,110
2019-02-25T10:07:41.999Z,110
2019-02-25T10:08:42.001Z,110
2019-02-25T10:09:42.046Z,110
2019-02-25T10:10:41.712Z,110
2019-02-25T10:11:41.952Z,110
2019-02-25T10:12:41.941Z,105
2019-02-25T10:13:41.923Z,105
2019-02-25T10:14:41.923Z,105
2019-02-25T10:15:41.911Z,105
2019-02-25T10:16:41.397Z,110
2019-02-25T10:17:41.881Z,110
2019-02-25T10:18:41.881Z,110
2019-02-25T10:19:41.790Z,110
2019-02-25T10:20:41.885Z,110
2019-02-25T10:21:41.834Z,110
2019-02-25T10:22:42.363Z,110
2019-02-25T10:23:42.949Z,110
2019-02-25T10:24:42.375Z,105
2019-02-25T10:25:41.788Z,105
2019-02-25T10:26:41.533Z,105
2019-02-25T10:27:41.529Z,105
2019-02-25T10:28:41.752Z,105
2019-02-25T10:29:41.743Z,105
2019-02-25T10:30:41.740Z,105
2019-02-25T10:31:46.146Z,105
2019-02-25T10:32:41.704Z,105
2019-02-25T10:33:41.465Z,105
2019-02-25T10:34:41.686Z,105
2019-02-25T10:35:41.683Z,105
2019-02-25T10:36:41.412Z,105
2019-02-25T10:37:46.285Z,105
2019-02-25T10:38:42.408Z,105
2019-02-25T10:39:45.243Z,105
2019-02-25T10:40:42.867Z,105
2019-02-25T10:41:41.355Z,105
2019-02-25T10:42:44.947Z,105
2019-02-25T10:43:43.851Z,105
2019-02-25T10:44:45.294Z,105
2019-02-25T10:45:47.351Z,105
2019-02-25T10:46:46.936Z,105
2019-02-25T10:47:41.970Z,105
2019-02-25T10:48:41.526Z,105
2019-02-25T10:49:43.264Z,110
2019-02-25T10:50:55.497Z,110
2019-02-25T10:51:47.953Z,110
2019-02-25T10:52:47.069Z,105
2019-02-25T10:53:42.955Z,105
2019-02-25T10:54:41.477Z,105
2019-02-25T10:55:44.826Z,105
2019-02-25T10:56:41.430Z,105
2019-02-25T10:57:41.464Z,105
2019-02-25T10:58:44.936Z,105
2019-02-25T10:59:46.068Z,105
2019-02-25T11:00:48.303Z,105
2019-02-25T11:01:45.723Z,105
2019-02-25T11:02:53.268Z,105
2019-02-25T11:03:41.366Z,105
2019-02-25T11:04:41.353Z,105
2019-02-25T11:05:41.353Z,105
2019-02-25T11:06:45.075Z,105
2019-02-25T11:07:46.583Z,105
2019-02-25T11:08:47.607Z,105
2019-02-25T11:09:45.961Z,105
2019-02-25T11:10:41.288Z,110
2019-02-25T11:11:41.023Z,110
2019-02-25T11:12:42.939Z,110
2019-02-25T11:13:43.640Z,110
2019-02-25T11:14:48.200Z,110
2019-02-25T11:15:47.867Z,110
2019-02-25T11:16:41.920Z,110
2019-02-25T11:17:40.962Z,110
2019-02-25T11:18:42.726Z,110
2019-02-25T11:19:42.506Z,110
2019-02-25T11:20:44.897Z,110
2019-02-25T11:21:46.836Z,110
2019-02-25T11:22:48.328Z,110
2019-02-25T11:23:40.897Z,115
2019-02-25T11:24:40.887Z,115
2019-02-25T11:25:40.886Z,110
2019-02-25T11:26:44.073Z,110
2019-02-25T11:27:46.757Z,110
2019-02-25T11:28:48.029Z,110
2019-02-25T11:29:48.250Z,110
2019-02-25T11:30:42.597Z,110
2019-02-25T11:31:41.060Z,105
2019-02-25T11:32:41.059Z,105
2019-02-25T11:33:43.457Z,105
2019-02-25T11:34:44.547Z,105
2019-02-25T11:35:47.576Z,105
2019-02-25T11:36:41.015Z,105
2019-02-25T11:37:41.016Z,105
2019-02-25T11:38:46.277Z,105
2019-02-25T11:39:44.365Z,105
2019-02-25T11:40:45.535Z,105
2019-02-25T11:41:45.918Z,105
2019-02-25T11:42:40.699Z,110
2019-02-25T11:43:40.975Z,110
2019-02-25T11:44:40.929Z,110
2019-02-25T11:45:41.223Z,110
2019-02-25T11:46:40.916Z,110
2019-02-25T11:47:40.667Z,110
2019-02-25T11:48:40.898Z,110
2019-02-25T11:49:40.632Z,110
2019-02-25T11:50:40.627Z,110
2019-02-25T11:51:40.870Z,110
2019-02-25T11:52:40.850Z,115
2019-02-25T11:53:40.840Z,115
2019-02-25T11:54:40.584Z,115
2019-02-25T11:55:40.574Z,115
2019-02-25T11:56:40.569Z,110
2019-02-25T11:57:40.802Z,115
2019-02-25T11:58:40.808Z,115
2019-02-25T11:59:40.819Z,110
2019-02-25T12:00:42.407Z,115
2019-02-25T12:01:40.763Z,115
2019-02-25T12:02:40.529Z,115
2019-02-25T12:03:40.498Z,115
2019-02-25T12:04:40.484Z,115
2019-02-25T12:05:40.721Z,115
2019-02-25T12:06:40.717Z,120
2019-02-25T12:07:40.457Z,120
2019-02-25T12:08:40.697Z,120
2019-02-25T12:09:40.687Z,120
2019-02-25T12:10:40.681Z,120
2019-02-25T12:11:40.424Z,120
2019-02-25T12:12:40.659Z,120
2019-02-25T12:13:40.647Z,120
2019-02-25T12:14:40.639Z,120
2019-02-25T12:15:40.625Z,120
2019-02-25T12:16:40.621Z,125
2019-02-25T12:17:40.361Z,125
2019-02-25T12:18:40.644Z,125
2019-02-25T12:19:40.597Z,120
2019-02-25T12:20:40.334Z,120
2019-02-25T12:21:42.300Z,120
2019-02-25T12:22:40.588Z,125
2019-02-25T12:23:40.306Z,120
2019-02-25T12:24:40.545Z,120
2019-02-25T12:25:40.283Z,120
2019-02-25T12:26:40.288Z,115
2019-02-25T12:27:40.515Z,120
2019-02-25T12:28:40.505Z,120
2019-02-25T12:29:40.936Z,120
2019-02-25T12:30:40.486Z,120
2019-02-25T12:31:40.479Z,120
2019-02-25T12:32:40.220Z,115
2019-02-25T12:33:40.466Z,115
2019-02-25T12:34:40.454Z,115
2019-02-25T12:35:40.199Z,115
2019-02-25T12:36:40.445Z,115
2019-02-25T12:37:40.423Z,115
2019-02-25T12:38:40.418Z,115
2019-02-25T12:39:40.416Z,115
2019-02-25T12:40:40.388Z,115
2019-02-25T12:41:40.388Z,115
2019-02-25T12:42:40.133Z,115
2019-02-25T12:43:40.374Z,115
2019-02-25T12:44:40.350Z,115
2019-02-25T12:45:39.857Z,110
2019-02-25T12:46:40.383Z,115
2019-02-25T12:47:40.329Z,120
2019-02-25T12:48:40.316Z,125
2019-02-25T12:49:40.378Z,125
2019-02-25T12:50:40.049Z,135
2019-02-25T12:51:40.050Z,140
2019-02-25T12:52:40.539Z,140
2019-02-25T12:53:42.585Z,135
2019-02-25T12:54:40.264Z,135
2019-02-25T12:55:40.269Z,135
2019-02-25T12:56:40.246Z,125
2019-02-25T12:57:39.792Z,120
2019-02-25T12:58:40.248Z,120
2019-02-25T12:59:40.229Z,120
2019-02-25T13:00:40.214Z,120
2019-02-25T13:01:40.223Z,120
2019-02-25T13:02:39.950Z,115
2019-02-25T13:03:39.686Z,120
2019-02-25T13:04:39.935Z,120
2019-02-25T13:05:40.167Z,120
2019-02-25T13:06:40.174Z,115
2019-02-25T13:07:40.150Z,120
2019-02-25T13:08:40.160Z,125
2019-02-25T13:09:39.909Z,130
2019-02-25T13:10:39.670Z,135
2019-02-25T13:11:42.405Z,130
2019-02-25T13:12:40.105Z,130
2019-02-25T13:13:40.103Z,130
2019-02-25T13:14:40.093Z,130
2019-02-25T13:15:39.847Z,130
2019-02-25T13:16:39.830Z,130
2019-02-25T13:17:40.063Z,130
2019-02-25T13:18:40.062Z,130
2019-02-25T13:19:40.049Z,130
2019-02-25T13:20:39.789Z,130
2019-02-25T13:21:40.024Z,130
2019-02-25T13:22:40.014Z,135
2019-02-25T13:23:39.754Z,140
2019-02-25T13:24:44.367Z,140
2019-02-25T13:25:39.741Z,140
2019-02-25T13:26:44.614Z,140
2019-02-25T13:27:40.031Z,135
2019-02-25T13:28:42.385Z,135
2019-02-25T13:29:39.772Z,135
2019-02-25T13:30:40.019Z,135
2019-02-25T13:31:39.737Z,135
2019-02-25T13:32:39.957Z,135
2019-02-25T13:33:40.063Z,140
2019-02-25T13:34:40.436Z,140
2019-02-25T13:35:39.701Z,145
2019-02-25T13:36:39.939Z,145
2019-02-25T13:37:40.070Z,150
2019-02-25T13:38:40.008Z,145
2019-02-25T13:39:39.700Z,145
2019-02-25T13:40:39.730Z,135
2019-02-25T13:41:40.360Z,135
2019-02-25T13:42:39.673Z,130
2019-02-25T13:43:39.678Z,125
2019-02-25T13:44:39.937Z,120
2019-02-25T13:45:39.937Z,115
2019-02-25T13:46:39.929Z,110
2019-02-25T13:47:39.902Z,110
2019-02-25T13:48:40.303Z,110
2019-02-25T13:49:39.901Z,110
2019-02-25T13:50:39.881Z,105
2019-02-25T13:51:39.625Z,105
2019-02-25T13:52:50.338Z,105
2019-02-25T13:53:39.926Z,105
2019-02-25T13:54:39.587Z,100
2019-02-25T13:55:40.271Z,100
2019-02-25T13:56:39.827Z,100
2019-02-25T13:57:39.317Z,100
2019-02-25T13:58:39.816Z,95
2019-02-25T13:59:39.504Z,95
2019-02-25T14:00:39.845Z,95
2019-02-25T14:01:39.836Z,95
2019-02-25T14:02:39.973Z,95
2019-02-25T14:03:39.660Z,90
2019-02-25T14:04:39.463Z,90
2019-02-25T14:05:39.722Z,90
2019-02-25T14:06:39.720Z,90
2019-02-25T14:07:41.454Z,90
2019-02-25T14:08:42.063Z,90
2019-02-25T14:09:39.666Z,90
2019-02-25T14:10:39.602Z,90
2019-02-25T14:11:39.659Z,90
2019-02-25T14:12:39.634Z,90
2019-02-25T14:13:39.348Z,90
2019-02-25T14:14:39.607Z,90
2019-02-25T14:15:39.601Z,90